Alcova, WY (82620)

7:21 AM MDT on April 28, 2017 (GMT -0600)
Natrona County International | | Change Station
Active Advisory: Winter Storm Warning Active Notice: Public Information Statement

Elev 5348 ft 42.91 °N, 106.46 °W | Updated 11 minutes ago

Snow
Snow
31 °F
Feels Like 19 °F
N
17
Wind Variable Wind from North

Today
High -- | Low -- °F
--% Chance of Precip.
Yesterday
High -- | Low -- °F
Precip. -- in
Pressure 29.70 in
Visibility 0.5 miles
Clouds Scattered Clouds 800 ft
Overcast 1400 ft
Windchill 19 °F
Dew Point 30 °F
Humidity 96%
Rainfall 0.06 in
Snow Depth Not available.
6:07 AM 8:05 PM
Waxing Crescent, 6% visible
SPECI KCPR 281310Z 01015KT 1/2SM R03/4000V5000FT -SN FZFG SCT008 OVC014 M01/M01 A2970 RMK AO2 P0001 T10061011
Pressure 29.70 in
Visibility 0.5 miles
Clouds Scattered Clouds 800 ft
Overcast 1400 ft
Windchill 19 °F
Dew Point 30 °F
Humidity 96%
Rainfall 0.06 in
Snow Depth Not available.
6:07 AM 8:05 PM
Waxing Crescent, 6% visible
SPECI KCPR 281310Z 01015KT 1/2SM R03/4000V5000FT -SN FZFG SCT008 OVC014 M01/M01 A2970 RMK AO2 P0001 T10061011

Get Your Daily Forecast Email!

Thanks for signing up!

Be on the lookout for a verification email in your inbox.

You'll start receiving severe weather alerts in your inbox..

×

10-Day Weather Forecast

Almanac

Astronomy

Apr. 28, 2017 Rise Set
Actual Time
Civil Twilight
Nautical Twilight
Astronomical Twilight
Moon
Length of Visible Light
Length of Day
Tomorrow will be .
, % of the Moon is Illuminated

Today's Extremes

State Highs State Lows

Community

WunderPhotos

WunderBlog® & News

Nearby

Air Quality

  Air Quality AQ Index Pollutant
Not available.

Snow Depth

Station Depth Elevation

Earthquake Activity

City Distance Mag. Time & Date
Minimum magnitude displayed is 2.5.

Coastal Water Temperatures

Place Temperature

Stations

Nearby Weather Stations

Station Location Temp. Windchill Dew Point Humidity Wind Precip. Elev Updated Type
                   

Watches & Warnings

Winter Storm Warning
Issued: 5:48 AM MDT Apr. 28, 2017 – National Weather Service

... Winter Storm Warning remains in effect until midnight MDT
tonight...

* timing... periods of snow through this evening. Moderate to
heavy snow will occur.

* Total snow accumulation... 6 to 12 inches.

* Main impact... roads across southeast Fremont County will be
slushy to snow covered especially this morning. As of 530 am,
Highway 287, 789 in southeast Fremont County was closed.

* Other impacts... heavy snow will reduce visibility below a
quarter mile at times.

Precautionary/preparedness actions...

A Winter Storm Warning means significant amounts of snow, and or
blowing snow are expected or occurring. This could make travel
very hazardous or impossible. If you must travel keep some food,
water, and an extra flashlight in your vehicle in case of an
emergency. Check the latest Road conditions at wyoroad.Info or by
dialing 5 1 1.